This is the latest recevied weather packets stored in our database for station/object DL4ABR-6. If no packets are shown the sender has not sent any weather packets the latest 10 day(s).
| Time | Temp. | Humidity | Pressure | Rain* | Wind** | Luminosity | Snow |
|---|---|---|---|---|---|---|---|
| 1777284515 | 15° C | 52% | 1020.2 hPa | 0 mm | - | - | - |
| 1777282015 | 13.89° C | 54% | 1020.6 hPa | 0 mm | - | - | - |
| 1777281250 | 13.89° C | 55% | 1020.7 hPa | 0 mm | - | - | - |
| 1777278805 | 12.78° C | 60% | 1020.9 hPa | 0 mm | - | - | - |
| 1777278068 | 12.78° C | 61% | 1020.8 hPa | 0 mm | - | - | - |
| 1777277195 | 12.22° C | 63% | 1020.8 hPa | 0 mm | - | - | - |
| 1777276350 | 11.11° C | 68% | 1020.9 hPa | 0 mm | - | - | - |
| 1777275530 | 10.56° C | 68% | 1020.9 hPa | 0 mm | - | - | - |
| 1777274810 | 10.56° C | 69% | 1020.7 hPa | 0 mm | - | - | - |
| 1777274065 | 9.44° C | 72% | 1020.9 hPa | 0 mm | - | - | - |
| 1777273275 | 8.89° C | 73% | 1020.8 hPa | 0 mm | - | - | - |
| 1777272495 | 7.78° C | 78% | 1020.9 hPa | 0 mm | - | - | - |
| 1777271745 | 7.22° C | 79% | 1021.3 hPa | 0 mm | - | - | - |
| 1777270935 | 5° C | 86% | 1021.1 hPa | 0 mm | - | - | - |
| 1777270140 | 4.44° C | 91% | 1020.9 hPa | 0 mm | - | - | - |
| 1777269350 | 3.89° C | 94% | 1020.7 hPa | 0 mm | - | - | - |
| 1777268538 | 2.78° C | 95% | 1020.8 hPa | 0 mm | - | - | - |
| 1777267785 | 1.11° C | 94% | 1020.6 hPa | 0 mm | - | - | - |
| 1777266980 | 0.56° C | 94% | 1020.5 hPa | 0 mm | - | - | - |
| 1777266250 | 0.56° C | 94% | 1020.7 hPa | 0 mm | - | - | - |
| 1777265485 | 0° C | 94% | 1020.4 hPa | 0 mm | - | - | - |
| 1777264660 | 0° C | 94% | 1020.3 hPa | 0 mm | - | - | - |
| 1777263805 | -0.56° C | 94% | 1020.5 hPa | 0 mm | - | - | - |
| 1777263080 | 0° C | 93% | 1020.2 hPa | 0 mm | - | - | - |
| 1777262345 | 0° C | 93% | 1020.4 hPa | 0 mm | - | - | - |
* Rain since midnight (hover to see other rain measurements)
** Current wind speed in m/s (hover to see current wind gust speed)